sensor_id;sensor_type;location;lat;lon;timestamp;temperature;humidity
18898;DHT22;9581;49.484;8.556;2023-03-30T00:00:06;14.40;99.90
18898;DHT22;9581;49.484;8.556;2023-03-30T00:02:43;14.40;99.90
18898;DHT22;9581;49.484;8.556;2023-03-30T00:05:11;14.40;99.90
18898;DHT22;9581;49.484;8.556;2023-03-30T00:07:39;14.40;99.90
18898;DHT22;9581;49.484;8.556;2023-03-30T00:10:08;14.30;99.90
18898;DHT22;9581;49.484;8.556;2023-03-30T00:12:35;14.20;99.90
18898;DHT22;9581;49.484;8.556;2023-03-30T00:15:04;14.20;99.90
18898;DHT22;9581;49.484;8.556;2023-03-30T00:17:31;14.20;99.90
18898;DHT22;9581;49.484;8.556;2023-03-30T00:19:59;14.20;99.90
18898;DHT22;9581;49.484;8.556;2023-03-30T00:22:31;14.20;99.90
18898;DHT22;9581;49.484;8.556;2023-03-30T00:24:58;14.20;99.90
18898;DHT22;9581;49.484;8.556;2023-03-30T00:27:25;14.20;99.90
18898;DHT22;9581;49.484;8.556;2023-03-30T00:29:52;14.20;99.90
18898;DHT22;9581;49.484;8.556;2023-03-30T00:32:19;14.20;99.90
18898;DHT22;9581;49.484;8.556;2023-03-30T00:34:46;14.20;99.90
18898;DHT22;9581;49.484;8.556;2023-03-30T00:37:12;14.10;99.90
18898;DHT22;9581;49.484;8.556;2023-03-30T00:39:42;14.20;99.90
18898;DHT22;9581;49.484;8.556;2023-03-30T00:42:13;14.10;99.90
18898;DHT22;9581;49.484;8.556;2023-03-30T00:45:08;14.20;99.90
18898;DHT22;9581;49.484;8.556;2023-03-30T00:47:38;14.10;99.90
18898;DHT22;9581;49.484;8.556;2023-03-30T00:50:08;14.10;99.90
18898;DHT22;9581;49.484;8.556;2023-03-30T00:52:35;14.10;99.90
18898;DHT22;9581;49.484;8.556;2023-03-30T00:55:06;14.10;99.90
18898;DHT22;9581;49.484;8.556;2023-03-30T00:57:35;14.10;99.90
18898;DHT22;9581;49.484;8.556;2023-03-30T01:00:04;14.10;99.90
18898;DHT22;9581;49.484;8.556;2023-03-30T01:02:34;14.00;99.90
18898;DHT22;9581;49.484;8.556;2023-03-30T01:05:04;13.90;99.90
18898;DHT22;9581;49.484;8.556;2023-03-30T01:07:32;14.00;99.90
18898;DHT22;9581;49.484;8.556;2023-03-30T01:09:59;14.00;99.90
18898;DHT22;9581;49.484;8.556;2023-03-30T01:12:28;14.00;99.90
18898;DHT22;9581;49.484;8.556;2023-03-30T01:14:55;14.00;99.90
18898;DHT22;9581;49.484;8.556;2023-03-30T01:17:27;14.00;99.90
18898;DHT22;9581;49.484;8.556;2023-03-30T01:23:15;14.00;99.90
18898;DHT22;9581;49.484;8.556;2023-03-30T01:26:19;14.00;99.90
18898;DHT22;9581;49.484;8.556;2023-03-30T01:28:56;14.00;99.90
18898;DHT22;9581;49.484;8.556;2023-03-30T01:31:39;14.00;99.90
18898;DHT22;9581;49.484;8.556;2023-03-30T01:37:23;14.00;99.90
18898;DHT22;9581;49.484;8.556;2023-03-30T01:40:02;14.00;99.90
18898;DHT22;9581;49.484;8.556;2023-03-30T01:42:37;14.00;99.90
18898;DHT22;9581;49.484;8.556;2023-03-30T01:45:11;14.00;99.90
18898;DHT22;9581;49.484;8.556;2023-03-30T01:47:43;14.00;99.90
18898;DHT22;9581;49.484;8.556;2023-03-30T01:50:14;14.00;99.90
18898;DHT22;9581;49.484;8.556;2023-03-30T01:52:49;14.00;99.90
18898;DHT22;9581;49.484;8.556;2023-03-30T01:55:23;14.00;99.90
18898;DHT22;9581;49.484;8.556;2023-03-30T01:57:54;14.00;99.90
18898;DHT22;9581;49.484;8.556;2023-03-30T02:00:24;14.00;99.90
18898;DHT22;9581;49.484;8.556;2023-03-30T02:02:54;14.00;99.90
18898;DHT22;9581;49.484;8.556;2023-03-30T02:05:23;13.90;99.90
18898;DHT22;9581;49.484;8.556;2023-03-30T02:07:54;14.00;99.90
18898;DHT22;9581;49.484;8.556;2023-03-30T02:10:26;14.00;99.90
18898;DHT22;9581;49.484;8.556;2023-03-30T02:12:55;14.00;99.90
18898;DHT22;9581;49.484;8.556;2023-03-30T02:15:27;14.00;99.90
18898;DHT22;9581;49.484;8.556;2023-03-30T02:17:57;14.00;99.90
18898;DHT22;9581;49.484;8.556;2023-03-30T02:20:24;14.00;99.90
18898;DHT22;9581;49.484;8.556;2023-03-30T02:22:53;14.00;99.90
18898;DHT22;9581;49.484;8.556;2023-03-30T02:25:23;14.00;99.90
18898;DHT22;9581;49.484;8.556;2023-03-30T02:27:50;13.90;99.90
18898;DHT22;9581;49.484;8.556;2023-03-30T02:30:17;13.80;99.90
18898;DHT22;9581;49.484;8.556;2023-03-30T02:32:47;13.60;99.90
18898;DHT22;9581;49.484;8.556;2023-03-30T02:35:37;13.50;99.90
18898;DHT22;9581;49.484;8.556;2023-03-30T02:38:24;13.50;99.90
18898;DHT22;9581;49.484;8.556;2023-03-30T02:41:05;13.40;99.90
18898;DHT22;9581;49.484;8.556;2023-03-30T02:43:40;13.50;99.90
18898;DHT22;9581;49.484;8.556;2023-03-30T02:46:18;13.50;99.90
18898;DHT22;9581;49.484;8.556;2023-03-30T02:48:54;13.50;99.90
18898;DHT22;9581;49.484;8.556;2023-03-30T02:51:36;13.50;99.90
18898;DHT22;9581;49.484;8.556;2023-03-30T02:54:11;13.50;99.90
18898;DHT22;9581;49.484;8.556;2023-03-30T02:56:45;13.50;99.90
18898;DHT22;9581;49.484;8.556;2023-03-30T02:59:16;13.40;99.90
18898;DHT22;9581;49.484;8.556;2023-03-30T03:01:47;13.50;99.90
18898;DHT22;9581;49.484;8.556;2023-03-30T03:04:16;13.50;99.90
18898;DHT22;9581;49.484;8.556;2023-03-30T03:06:47;13.50;99.90
18898;DHT22;9581;49.484;8.556;2023-03-30T03:09:17;13.50;99.90
18898;DHT22;9581;49.484;8.556;2023-03-30T03:11:45;13.50;99.90
18898;DHT22;9581;49.484;8.556;2023-03-30T03:14:12;13.50;99.90
18898;DHT22;9581;49.484;8.556;2023-03-30T03:16:39;13.50;99.90
18898;DHT22;9581;49.484;8.556;2023-03-30T03:19:06;13.50;99.90
18898;DHT22;9581;49.484;8.556;2023-03-30T03:21:34;13.50;99.90
18898;DHT22;9581;49.484;8.556;2023-03-30T03:24:01;13.50;99.90
18898;DHT22;9581;49.484;8.556;2023-03-30T03:26:28;13.50;99.90
18898;DHT22;9581;49.484;8.556;2023-03-30T03:28:56;13.60;99.90
18898;DHT22;9581;49.484;8.556;2023-03-30T03:31:23;13.60;99.90
18898;DHT22;9581;49.484;8.556;2023-03-30T03:33:51;13.60;99.90
18898;DHT22;9581;49.484;8.556;2023-03-30T03:36:18;13.60;99.90
18898;DHT22;9581;49.484;8.556;2023-03-30T03:38:45;13.60;99.90
18898;DHT22;9581;49.484;8.556;2023-03-30T03:41:11;13.60;99.90
18898;DHT22;9581;49.484;8.556;2023-03-30T03:43:38;13.60;99.90
18898;DHT22;9581;49.484;8.556;2023-03-30T03:46:06;13.60;99.90
18898;DHT22;9581;49.484;8.556;2023-03-30T03:48:33;13.60;99.90
18898;DHT22;9581;49.484;8.556;2023-03-30T03:51:00;13.60;99.90
18898;DHT22;9581;49.484;8.556;2023-03-30T03:53:27;13.60;99.90
18898;DHT22;9581;49.484;8.556;2023-03-30T03:55:54;13.60;99.90
18898;DHT22;9581;49.484;8.556;2023-03-30T03:58:22;13.60;99.90
18898;DHT22;9581;49.484;8.556;2023-03-30T04:00:49;13.60;99.90
18898;DHT22;9581;49.484;8.556;2023-03-30T04:03:18;13.70;99.90
18898;DHT22;9581;49.484;8.556;2023-03-30T04:05:45;13.70;99.90
18898;DHT22;9581;49.484;8.556;2023-03-30T04:08:11;13.60;99.90
18898;DHT22;9581;49.484;8.556;2023-03-30T04:10:39;13.70;99.90
18898;DHT22;9581;49.484;8.556;2023-03-30T04:13:06;13.70;99.90
18898;DHT22;9581;49.484;8.556;2023-03-30T04:15:33;13.70;99.90
18898;DHT22;9581;49.484;8.556;2023-03-30T04:18:00;13.70;99.90
18898;DHT22;9581;49.484;8.556;2023-03-30T04:20:28;13.70;99.90
18898;DHT22;9581;49.484;8.556;2023-03-30T04:22:55;13.70;99.90
18898;DHT22;9581;49.484;8.556;2023-03-30T04:25:26;13.70;99.90
18898;DHT22;9581;49.484;8.556;2023-03-30T04:27:53;13.70;99.90
18898;DHT22;9581;49.484;8.556;2023-03-30T04:30:21;13.70;99.90
18898;DHT22;9581;49.484;8.556;2023-03-30T04:32:48;13.70;99.90
18898;DHT22;9581;49.484;8.556;2023-03-30T04:35:29;13.70;99.90
18898;DHT22;9581;49.484;8.556;2023-03-30T04:37:56;13.70;99.90
18898;DHT22;9581;49.484;8.556;2023-03-30T04:40:24;13.70;99.90
18898;DHT22;9581;49.484;8.556;2023-03-30T04:42:51;13.70;99.90
18898;DHT22;9581;49.484;8.556;2023-03-30T04:45:18;13.70;99.90
18898;DHT22;9581;49.484;8.556;2023-03-30T04:47:45;13.70;99.90
18898;DHT22;9581;49.484;8.556;2023-03-30T04:50:13;13.70;99.90
18898;DHT22;9581;49.484;8.556;2023-03-30T04:52:41;13.60;99.90
18898;DHT22;9581;49.484;8.556;2023-03-30T04:55:09;13.60;99.90
18898;DHT22;9581;49.484;8.556;2023-03-30T04:57:36;13.50;99.90
18898;DHT22;9581;49.484;8.556;2023-03-30T05:00:05;13.40;99.90
18898;DHT22;9581;49.484;8.556;2023-03-30T05:02:34;13.40;99.90
18898;DHT22;9581;49.484;8.556;2023-03-30T05:05:00;13.40;99.90
18898;DHT22;9581;49.484;8.556;2023-03-30T05:07:27;13.50;99.90
18898;DHT22;9581;49.484;8.556;2023-03-30T05:09:55;13.60;99.90
18898;DHT22;9581;49.484;8.556;2023-03-30T05:12:22;13.50;99.90
18898;DHT22;9581;49.484;8.556;2023-03-30T05:14:49;13.60;99.90
18898;DHT22;9581;49.484;8.556;2023-03-30T05:17:16;13.70;99.90
18898;DHT22;9581;49.484;8.556;2023-03-30T05:19:42;13.70;99.90
18898;DHT22;9581;49.484;8.556;2023-03-30T05:22:11;13.70;99.90
18898;DHT22;9581;49.484;8.556;2023-03-30T05:24:37;13.70;99.90
18898;DHT22;9581;49.484;8.556;2023-03-30T05:27:06;13.60;99.90
18898;DHT22;9581;49.484;8.556;2023-03-30T05:29:32;13.60;99.90
18898;DHT22;9581;49.484;8.556;2023-03-30T05:31:59;13.60;99.90
18898;DHT22;9581;49.484;8.556;2023-03-30T05:34:26;13.50;99.90
18898;DHT22;9581;49.484;8.556;2023-03-30T05:36:53;13.50;99.90
18898;DHT22;9581;49.484;8.556;2023-03-30T05:39:20;13.60;99.90
18898;DHT22;9581;49.484;8.556;2023-03-30T05:41:47;13.60;99.90
18898;DHT22;9581;49.484;8.556;2023-03-30T05:44:16;13.70;99.90
18898;DHT22;9581;49.484;8.556;2023-03-30T05:46:42;13.70;99.90
18898;DHT22;9581;49.484;8.556;2023-03-30T05:49:09;13.50;99.90
18898;DHT22;9581;49.484;8.556;2023-03-30T05:51:36;13.50;99.90
18898;DHT22;9581;49.484;8.556;2023-03-30T05:54:04;13.30;99.90
18898;DHT22;9581;49.484;8.556;2023-03-30T05:56:31;13.10;99.90
18898;DHT22;9581;49.484;8.556;2023-03-30T05:58:57;13.20;99.90
18898;DHT22;9581;49.484;8.556;2023-03-30T06:01:25;13.30;99.90
18898;DHT22;9581;49.484;8.556;2023-03-30T06:03:52;13.30;99.90
18898;DHT22;9581;49.484;8.556;2023-03-30T06:06:19;13.20;99.90
18898;DHT22;9581;49.484;8.556;2023-03-30T06:08:47;13.20;99.90
18898;DHT22;9581;49.484;8.556;2023-03-30T06:11:14;13.10;99.90
18898;DHT22;9581;49.484;8.556;2023-03-30T06:13:41;13.10;99.90
18898;DHT22;9581;49.484;8.556;2023-03-30T06:16:08;13.20;99.90
18898;DHT22;9581;49.484;8.556;2023-03-30T06:18:38;13.20;99.90
18898;DHT22;9581;49.484;8.556;2023-03-30T06:21:05;13.10;99.90
18898;DHT22;9581;49.484;8.556;2023-03-30T06:23:33;13.10;99.90
18898;DHT22;9581;49.484;8.556;2023-03-30T06:26:00;13.20;99.90
18898;DHT22;9581;49.484;8.556;2023-03-30T06:28:27;13.30;99.90
18898;DHT22;9581;49.484;8.556;2023-03-30T06:30:54;13.10;99.90
18898;DHT22;9581;49.484;8.556;2023-03-30T06:33:21;13.20;99.90
18898;DHT22;9581;49.484;8.556;2023-03-30T06:35:51;13.30;99.90
18898;DHT22;9581;49.484;8.556;2023-03-30T06:38:20;13.30;99.90
18898;DHT22;9581;49.484;8.556;2023-03-30T06:40:47;13.30;99.90
18898;DHT22;9581;49.484;8.556;2023-03-30T06:43:16;13.30;99.90
18898;DHT22;9581;49.484;8.556;2023-03-30T06:45:48;13.30;99.90
18898;DHT22;9581;49.484;8.556;2023-03-30T06:48:15;13.30;99.90
18898;DHT22;9581;49.484;8.556;2023-03-30T06:50:44;13.20;99.90
18898;DHT22;9581;49.484;8.556;2023-03-30T06:53:12;13.20;99.90
18898;DHT22;9581;49.484;8.556;2023-03-30T06:55:39;13.30;99.90
18898;DHT22;9581;49.484;8.556;2023-03-30T06:58:06;13.40;99.90
18898;DHT22;9581;49.484;8.556;2023-03-30T07:00:33;13.30;99.90
18898;DHT22;9581;49.484;8.556;2023-03-30T07:03:00;13.30;99.90
18898;DHT22;9581;49.484;8.556;2023-03-30T07:05:28;13.30;99.90
18898;DHT22;9581;49.484;8.556;2023-03-30T07:07:55;13.30;99.90
18898;DHT22;9581;49.484;8.556;2023-03-30T07:10:24;13.40;99.90
18898;DHT22;9581;49.484;8.556;2023-03-30T07:12:51;13.40;99.90
18898;DHT22;9581;49.484;8.556;2023-03-30T07:15:18;13.40;99.90
18898;DHT22;9581;49.484;8.556;2023-03-30T07:17:45;13.40;99.90
18898;DHT22;9581;49.484;8.556;2023-03-30T07:20:12;13.40;99.90
18898;DHT22;9581;49.484;8.556;2023-03-30T07:22:40;13.40;99.90
18898;DHT22;9581;49.484;8.556;2023-03-30T07:25:07;13.20;99.90
18898;DHT22;9581;49.484;8.556;2023-03-30T07:27:37;13.20;99.90
18898;DHT22;9581;49.484;8.556;2023-03-30T07:30:05;13.20;99.90
18898;DHT22;9581;49.484;8.556;2023-03-30T07:32:32;13.20;99.90
18898;DHT22;9581;49.484;8.556;2023-03-30T07:34:58;13.10;99.90
18898;DHT22;9581;49.484;8.556;2023-03-30T07:37:26;13.10;99.90
18898;DHT22;9581;49.484;8.556;2023-03-30T07:39:53;13.10;99.90
18898;DHT22;9581;49.484;8.556;2023-03-30T07:42:20;13.20;99.90
18898;DHT22;9581;49.484;8.556;2023-03-30T07:44:48;13.10;99.90
18898;DHT22;9581;49.484;8.556;2023-03-30T07:47:15;13.10;99.90
18898;DHT22;9581;49.484;8.556;2023-03-30T07:49:42;13.10;99.90
18898;DHT22;9581;49.484;8.556;2023-03-30T07:52:08;13.10;99.90
18898;DHT22;9581;49.484;8.556;2023-03-30T07:54:36;13.00;99.90
18898;DHT22;9581;49.484;8.556;2023-03-30T07:57:03;13.00;99.90
18898;DHT22;9581;49.484;8.556;2023-03-30T07:59:30;13.00;99.90
18898;DHT22;9581;49.484;8.556;2023-03-30T08:01:59;13.00;99.90
18898;DHT22;9581;49.484;8.556;2023-03-30T08:04:26;13.00;99.90
18898;DHT22;9581;49.484;8.556;2023-03-30T08:06:53;13.00;99.90
18898;DHT22;9581;49.484;8.556;2023-03-30T08:09:20;13.00;99.90
18898;DHT22;9581;49.484;8.556;2023-03-30T08:11:47;13.00;99.90
18898;DHT22;9581;49.484;8.556;2023-03-30T08:14:13;13.10;99.90
18898;DHT22;9581;49.484;8.556;2023-03-30T08:16:40;13.10;99.90
18898;DHT22;9581;49.484;8.556;2023-03-30T08:19:08;13.10;99.90
18898;DHT22;9581;49.484;8.556;2023-03-30T08:21:36;13.20;99.90
18898;DHT22;9581;49.484;8.556;2023-03-30T08:24:03;13.20;99.90
18898;DHT22;9581;49.484;8.556;2023-03-30T08:26:30;13.20;99.90
18898;DHT22;9581;49.484;8.556;2023-03-30T08:28:57;13.30;99.90
18898;DHT22;9581;49.484;8.556;2023-03-30T08:31:24;13.20;99.90
18898;DHT22;9581;49.484;8.556;2023-03-30T08:33:50;13.30;99.90
18898;DHT22;9581;49.484;8.556;2023-03-30T08:36:19;13.30;99.90
18898;DHT22;9581;49.484;8.556;2023-03-30T08:38:46;13.30;99.90
18898;DHT22;9581;49.484;8.556;2023-03-30T08:44:32;13.30;99.90
18898;DHT22;9581;49.484;8.556;2023-03-30T08:47:00;13.30;99.90
18898;DHT22;9581;49.484;8.556;2023-03-30T08:49:30;13.30;99.90
18898;DHT22;9581;49.484;8.556;2023-03-30T08:52:02;13.40;99.90
18898;DHT22;9581;49.484;8.556;2023-03-30T08:54:31;13.40;99.90
18898;DHT22;9581;49.484;8.556;2023-03-30T08:57:05;13.50;99.90
18898;DHT22;9581;49.484;8.556;2023-03-30T08:59:42;13.40;99.90
18898;DHT22;9581;49.484;8.556;2023-03-30T09:02:16;13.50;99.90
18898;DHT22;9581;49.484;8.556;2023-03-30T09:04:54;13.50;99.90
18898;DHT22;9581;49.484;8.556;2023-03-30T09:07:26;13.50;99.90
18898;DHT22;9581;49.484;8.556;2023-03-30T09:09:55;13.50;99.90
18898;DHT22;9581;49.484;8.556;2023-03-30T09:12:28;13.50;99.90
18898;DHT22;9581;49.484;8.556;2023-03-30T09:15:02;13.40;99.90
18898;DHT22;9581;49.484;8.556;2023-03-30T09:17:32;13.50;99.90
18898;DHT22;9581;49.484;8.556;2023-03-30T09:20:06;13.50;99.90
18898;DHT22;9581;49.484;8.556;2023-03-30T09:22:40;13.50;99.90
18898;DHT22;9581;49.484;8.556;2023-03-30T09:25:15;13.50;99.90
18898;DHT22;9581;49.484;8.556;2023-03-30T09:27:53;13.50;99.90
18898;DHT22;9581;49.484;8.556;2023-03-30T09:30:27;13.60;99.90
18898;DHT22;9581;49.484;8.556;2023-03-30T09:32:58;13.50;99.90
18898;DHT22;9581;49.484;8.556;2023-03-30T09:35:36;13.60;99.90
18898;DHT22;9581;49.484;8.556;2023-03-30T09:38:06;13.60;99.90
18898;DHT22;9581;49.484;8.556;2023-03-30T09:43:31;13.80;99.90
18898;DHT22;9581;49.484;8.556;2023-03-30T09:46:00;13.80;99.90
18898;DHT22;9581;49.484;8.556;2023-03-30T09:48:27;14.00;99.90
18898;DHT22;9581;49.484;8.556;2023-03-30T09:50:54;14.00;99.90
18898;DHT22;9581;49.484;8.556;2023-03-30T09:53:24;14.00;99.90
18898;DHT22;9581;49.484;8.556;2023-03-30T09:55:58;14.10;99.90
18898;DHT22;9581;49.484;8.556;2023-03-30T09:58:27;14.10;99.90
18898;DHT22;9581;49.484;8.556;2023-03-30T10:01:06;14.20;99.90
18898;DHT22;9581;49.484;8.556;2023-03-30T10:03:34;14.20;99.90
18898;DHT22;9581;49.484;8.556;2023-03-30T10:06:05;14.20;99.90
18898;DHT22;9581;49.484;8.556;2023-03-30T10:08:39;14.30;99.90
18898;DHT22;9581;49.484;8.556;2023-03-30T10:11:07;14.30;99.90
18898;DHT22;9581;49.484;8.556;2023-03-30T10:13:36;14.40;99.90
18898;DHT22;9581;49.484;8.556;2023-03-30T10:16:06;14.60;99.90
18898;DHT22;9581;49.484;8.556;2023-03-30T10:18:38;14.80;99.90
18898;DHT22;9581;49.484;8.556;2023-03-30T10:21:14;15.10;99.90
18898;DHT22;9581;49.484;8.556;2023-03-30T10:23:45;15.10;99.90
18898;DHT22;9581;49.484;8.556;2023-03-30T10:26:14;15.10;99.90
18898;DHT22;9581;49.484;8.556;2023-03-30T10:28:53;15.10;99.90
18898;DHT22;9581;49.484;8.556;2023-03-30T10:31:21;15.10;99.90
18898;DHT22;9581;49.484;8.556;2023-03-30T10:33:49;15.10;99.90
18898;DHT22;9581;49.484;8.556;2023-03-30T10:36:29;15.00;99.90
18898;DHT22;9581;49.484;8.556;2023-03-30T10:39:04;15.00;99.90
18898;DHT22;9581;49.484;8.556;2023-03-30T10:41:32;15.00;99.90
18898;DHT22;9581;49.484;8.556;2023-03-30T10:44:05;14.90;99.90
18898;DHT22;9581;49.484;8.556;2023-03-30T10:46:36;14.90;99.90
18898;DHT22;9581;49.484;8.556;2023-03-30T10:49:13;14.90;99.90
18898;DHT22;9581;49.484;8.556;2023-03-30T10:51:52;15.00;99.90
18898;DHT22;9581;49.484;8.556;2023-03-30T10:54:27;15.00;99.90
18898;DHT22;9581;49.484;8.556;2023-03-30T10:56:59;15.00;99.90
18898;DHT22;9581;49.484;8.556;2023-03-30T10:59:46;15.00;99.90
18898;DHT22;9581;49.484;8.556;2023-03-30T11:05:11;15.10;99.90
18898;DHT22;9581;49.484;8.556;2023-03-30T11:07:41;15.70;99.90
18898;DHT22;9581;49.484;8.556;2023-03-30T11:10:14;15.80;99.90
18898;DHT22;9581;49.484;8.556;2023-03-30T11:12:46;15.90;99.90
18898;DHT22;9581;49.484;8.556;2023-03-30T11:15:18;15.90;99.90
18898;DHT22;9581;49.484;8.556;2023-03-30T11:17:54;16.40;99.90
18898;DHT22;9581;49.484;8.556;2023-03-30T11:20:25;16.30;99.90
18898;DHT22;9581;49.484;8.556;2023-03-30T11:23:05;16.30;99.90
18898;DHT22;9581;49.484;8.556;2023-03-30T11:25:49;16.10;99.90
18898;DHT22;9581;49.484;8.556;2023-03-30T11:28:34;16.00;99.90
18898;DHT22;9581;49.484;8.556;2023-03-30T11:31:07;16.20;99.90
18898;DHT22;9581;49.484;8.556;2023-03-30T11:33:42;16.10;99.90
18898;DHT22;9581;49.484;8.556;2023-03-30T11:36:15;16.30;99.90
18898;DHT22;9581;49.484;8.556;2023-03-30T11:38:48;16.40;99.90
18898;DHT22;9581;49.484;8.556;2023-03-30T11:41:21;16.60;99.90
18898;DHT22;9581;49.484;8.556;2023-03-30T11:43:49;16.50;99.90
18898;DHT22;9581;49.484;8.556;2023-03-30T11:46:25;16.50;99.90
18898;DHT22;9581;49.484;8.556;2023-03-30T11:49:16;16.50;99.90
18898;DHT22;9581;49.484;8.556;2023-03-30T11:52:06;16.80;99.90
18898;DHT22;9581;49.484;8.556;2023-03-30T11:54:53;16.90;99.90
18898;DHT22;9581;49.484;8.556;2023-03-30T11:57:32;17.40;99.90
18898;DHT22;9581;49.484;8.556;2023-03-30T12:00:20;17.70;99.90
18898;DHT22;9581;49.484;8.556;2023-03-30T12:02:59;18.00;99.90
18898;DHT22;9581;49.484;8.556;2023-03-30T12:05:31;17.70;99.90
18898;DHT22;9581;49.484;8.556;2023-03-30T12:08:06;17.70;99.90
18898;DHT22;9581;49.484;8.556;2023-03-30T12:10:39;17.70;99.90
18898;DHT22;9581;49.484;8.556;2023-03-30T12:13:10;17.70;99.90
18898;DHT22;9581;49.484;8.556;2023-03-30T12:15:43;17.70;99.90
18898;DHT22;9581;49.484;8.556;2023-03-30T12:18:18;17.80;99.90
18898;DHT22;9581;49.484;8.556;2023-03-30T12:20:51;17.50;99.90
18898;DHT22;9581;49.484;8.556;2023-03-30T12:23:29;18.10;99.90
18898;DHT22;9581;49.484;8.556;2023-03-30T12:26:08;18.70;99.90
18898;DHT22;9581;49.484;8.556;2023-03-30T12:28:43;18.60;99.90
18898;DHT22;9581;49.484;8.556;2023-03-30T12:31:10;18.30;99.90
18898;DHT22;9581;49.484;8.556;2023-03-30T12:33:44;18.70;99.90
18898;DHT22;9581;49.484;8.556;2023-03-30T12:36:23;18.60;99.90
18898;DHT22;9581;49.484;8.556;2023-03-30T12:38:53;18.30;99.90
18898;DHT22;9581;49.484;8.556;2023-03-30T12:41:24;18.30;99.90
18898;DHT22;9581;49.484;8.556;2023-03-30T12:44:26;18.60;99.90
18898;DHT22;9581;49.484;8.556;2023-03-30T12:47:23;19.10;99.90
18898;DHT22;9581;49.484;8.556;2023-03-30T12:50:25;19.60;99.90
18898;DHT22;9581;49.484;8.556;2023-03-30T12:53:06;18.80;99.90
18898;DHT22;9581;49.484;8.556;2023-03-30T12:55:41;18.60;99.90
18898;DHT22;9581;49.484;8.556;2023-03-30T12:58:29;18.20;99.90
18898;DHT22;9581;49.484;8.556;2023-03-30T13:01:11;17.50;99.90
18898;DHT22;9581;49.484;8.556;2023-03-30T13:03:46;17.40;99.90
18898;DHT22;9581;49.484;8.556;2023-03-30T13:06:26;17.20;99.90
18898;DHT22;9581;49.484;8.556;2023-03-30T13:08:56;17.10;99.90
18898;DHT22;9581;49.484;8.556;2023-03-30T13:11:23;17.60;99.90
18898;DHT22;9581;49.484;8.556;2023-03-30T13:13:53;18.50;99.90
18898;DHT22;9581;49.484;8.556;2023-03-30T13:19:43;19.30;99.90
18898;DHT22;9581;49.484;8.556;2023-03-30T13:22:26;19.90;99.90
18898;DHT22;9581;49.484;8.556;2023-03-30T13:24:54;20.00;99.90
18898;DHT22;9581;49.484;8.556;2023-03-30T13:27:26;20.20;99.90
18898;DHT22;9581;49.484;8.556;2023-03-30T13:29:55;20.20;99.90
18898;DHT22;9581;49.484;8.556;2023-03-30T13:32:32;20.50;99.90
18898;DHT22;9581;49.484;8.556;2023-03-30T13:35:12;21.00;99.90
18898;DHT22;9581;49.484;8.556;2023-03-30T13:40:41;20.80;99.90
18898;DHT22;9581;49.484;8.556;2023-03-30T13:43:17;21.00;99.90
18898;DHT22;9581;49.484;8.556;2023-03-30T13:45:51;21.10;99.90
18898;DHT22;9581;49.484;8.556;2023-03-30T13:48:34;20.90;99.90
18898;DHT22;9581;49.484;8.556;2023-03-30T13:51:13;21.60;99.90
18898;DHT22;9581;49.484;8.556;2023-03-30T13:53:45;21.50;99.90
18898;DHT22;9581;49.484;8.556;2023-03-30T13:56:14;21.50;98.80
18898;DHT22;9581;49.484;8.556;2023-03-30T13:58:46;21.70;97.70
18898;DHT22;9581;49.484;8.556;2023-03-30T14:01:18;22.00;97.30
18898;DHT22;9581;49.484;8.556;2023-03-30T14:03:49;21.60;95.50
18898;DHT22;9581;49.484;8.556;2023-03-30T14:06:19;21.50;94.90
18898;DHT22;9581;49.484;8.556;2023-03-30T14:08:48;22.70;94.50
18898;DHT22;9581;49.484;8.556;2023-03-30T14:11:17;24.10;93.20
18898;DHT22;9581;49.484;8.556;2023-03-30T14:13:48;24.60;93.30
18898;DHT22;9581;49.484;8.556;2023-03-30T14:16:22;25.00;91.30
18898;DHT22;9581;49.484;8.556;2023-03-30T14:18:49;25.60;88.60
18898;DHT22;9581;49.484;8.556;2023-03-30T14:21:19;22.70;89.80
18898;DHT22;9581;49.484;8.556;2023-03-30T14:23:50;20.40;91.40
18898;DHT22;9581;49.484;8.556;2023-03-30T14:26:21;19.90;91.70
18898;DHT22;9581;49.484;8.556;2023-03-30T14:28:53;19.60;92.80
18898;DHT22;9581;49.484;8.556;2023-03-30T14:31:21;19.40;93.00
18898;DHT22;9581;49.484;8.556;2023-03-30T14:33:48;19.20;95.20
18898;DHT22;9581;49.484;8.556;2023-03-30T14:36:17;19.10;95.60
18898;DHT22;9581;49.484;8.556;2023-03-30T14:38:46;25.40;93.30
18898;DHT22;9581;49.484;8.556;2023-03-30T14:41:16;30.30;85.80
18898;DHT22;9581;49.484;8.556;2023-03-30T14:43:48;32.40;74.60
18898;DHT22;9581;49.484;8.556;2023-03-30T14:46:16;32.90;66.40
18898;DHT22;9581;49.484;8.556;2023-03-30T14:48:45;33.70;62.40
18898;DHT22;9581;49.484;8.556;2023-03-30T14:51:22;35.10;59.60
18898;DHT22;9581;49.484;8.556;2023-03-30T14:53:50;34.40;57.50
18898;DHT22;9581;49.484;8.556;2023-03-30T14:56:19;35.50;56.30
18898;DHT22;9581;49.484;8.556;2023-03-30T14:58:48;36.00;54.30
18898;DHT22;9581;49.484;8.556;2023-03-30T15:01:19;34.60;52.90
18898;DHT22;9581;49.484;8.556;2023-03-30T15:03:48;33.60;54.70
18898;DHT22;9581;49.484;8.556;2023-03-30T15:06:21;34.90;53.10
18898;DHT22;9581;49.484;8.556;2023-03-30T15:08:48;32.90;53.70
18898;DHT22;9581;49.484;8.556;2023-03-30T15:11:19;29.10;57.60
18898;DHT22;9581;49.484;8.556;2023-03-30T15:13:48;24.00;62.40
18898;DHT22;9581;49.484;8.556;2023-03-30T15:16:19;21.50;63.70
18898;DHT22;9581;49.484;8.556;2023-03-30T15:18:47;27.40;58.40
18898;DHT22;9581;49.484;8.556;2023-03-30T15:21:15;25.50;59.10
18898;DHT22;9581;49.484;8.556;2023-03-30T15:23:45;26.60;57.00
18898;DHT22;9581;49.484;8.556;2023-03-30T15:26:14;27.50;56.90
18898;DHT22;9581;49.484;8.556;2023-03-30T15:28:44;30.50;56.00
18898;DHT22;9581;49.484;8.556;2023-03-30T15:31:13;27.70;55.20
18898;DHT22;9581;49.484;8.556;2023-03-30T15:33:42;27.10;56.90
18898;DHT22;9581;49.484;8.556;2023-03-30T15:36:12;27.00;56.30
18898;DHT22;9581;49.484;8.556;2023-03-30T15:38:46;26.10;57.90
18898;DHT22;9581;49.484;8.556;2023-03-30T15:41:14;26.00;57.10
18898;DHT22;9581;49.484;8.556;2023-03-30T15:43:56;25.00;59.10
18898;DHT22;9581;49.484;8.556;2023-03-30T15:46:24;25.60;58.20
18898;DHT22;9581;49.484;8.556;2023-03-30T15:48:52;23.60;58.70
18898;DHT22;9581;49.484;8.556;2023-03-30T15:51:21;20.50;63.10
18898;DHT22;9581;49.484;8.556;2023-03-30T15:53:56;19.80;67.70
18898;DHT22;9581;49.484;8.556;2023-03-30T15:56:28;19.60;65.70
18898;DHT22;9581;49.484;8.556;2023-03-30T15:58:56;19.20;66.10
18898;DHT22;9581;49.484;8.556;2023-03-30T16:01:27;19.10;66.90
18898;DHT22;9581;49.484;8.556;2023-03-30T16:03:55;19.20;68.10
18898;DHT22;9581;49.484;8.556;2023-03-30T16:06:25;18.90;69.10
18898;DHT22;9581;49.484;8.556;2023-03-30T16:08:53;19.00;69.40
18898;DHT22;9581;49.484;8.556;2023-03-30T16:11:20;18.90;69.30
18898;DHT22;9581;49.484;8.556;2023-03-30T16:13:48;19.00;69.50
18898;DHT22;9581;49.484;8.556;2023-03-30T16:16:15;19.50;68.70
18898;DHT22;9581;49.484;8.556;2023-03-30T16:18:43;19.20;69.40
18898;DHT22;9581;49.484;8.556;2023-03-30T16:21:10;19.50;70.00
18898;DHT22;9581;49.484;8.556;2023-03-30T16:23:37;19.00;71.00
18898;DHT22;9581;49.484;8.556;2023-03-30T16:26:05;18.70;71.80
18898;DHT22;9581;49.484;8.556;2023-03-30T16:28:34;18.40;73.30